createdAt,value
2022-11-26T00:02:24.055Z,3.70
2022-11-26T00:04:53.608Z,3.70
2022-11-26T00:07:26.341Z,3.70
2022-11-26T00:09:56.984Z,3.60
2022-11-26T00:12:28.144Z,3.60
2022-11-26T00:14:56.113Z,3.70
2022-11-26T00:17:24.123Z,3.70
2022-11-26T00:19:52.063Z,3.70
2022-11-26T00:22:25.675Z,3.70
2022-11-26T00:24:55.705Z,3.70
2022-11-26T00:27:27.639Z,3.70
2022-11-26T00:29:55.911Z,3.80
2022-11-26T00:32:26.331Z,3.80
2022-11-26T00:34:54.786Z,3.80
2022-11-26T00:37:25.806Z,3.80
2022-11-26T00:39:56.546Z,3.90
2022-11-26T00:42:24.824Z,3.90
2022-11-26T00:44:52.717Z,4.00
2022-11-26T00:47:21.979Z,4.00
2022-11-26T00:49:49.845Z,4.10
2022-11-26T00:52:27.753Z,4.00
2022-11-26T00:54:57.373Z,4.00
2022-11-26T00:57:25.521Z,3.90
2022-11-26T00:59:53.362Z,3.90
2022-11-26T01:02:21.435Z,3.90
2022-11-26T01:04:49.285Z,3.90
2022-11-26T01:07:17.301Z,3.90
2022-11-26T01:09:47.305Z,4.00
2022-11-26T01:12:16.986Z,4.00
2022-11-26T01:14:44.983Z,4.00
2022-11-26T01:17:13.312Z,4.10
2022-11-26T01:19:41.331Z,4.10
2022-11-26T01:22:20.696Z,4.10
2022-11-26T01:24:48.796Z,4.20
2022-11-26T01:27:20.129Z,4.20
2022-11-26T01:29:48.555Z,4.20
2022-11-26T01:32:16.634Z,4.20
2022-11-26T01:34:54.597Z,4.30
2022-11-26T01:37:22.587Z,4.30
2022-11-26T01:39:50.510Z,4.30
2022-11-26T01:42:27.731Z,4.30
2022-11-26T01:44:55.710Z,4.40
2022-11-26T01:47:25.530Z,4.40
2022-11-26T01:50:30.778Z,4.50
2022-11-26T01:53:03.548Z,4.50
2022-11-26T01:55:37.425Z,4.50
2022-11-26T01:58:08.475Z,4.50
2022-11-26T02:00:36.547Z,4.50
2022-11-26T02:03:06.050Z,4.50
2022-11-26T02:05:41.089Z,4.50
2022-11-26T02:08:12.182Z,4.50
2022-11-26T02:10:40.256Z,4.50
2022-11-26T02:13:08.597Z,4.50
2022-11-26T02:15:47.666Z,4.40
2022-11-26T02:18:16.947Z,4.40
2022-11-26T02:20:53.657Z,4.40
2022-11-26T02:24:12.190Z,4.60
2022-11-26T02:27:07.529Z,4.50
2022-11-26T02:30:06.119Z,4.50
2022-11-26T02:32:43.653Z,4.50
2022-11-26T02:35:17.057Z,4.50
2022-11-26T02:37:49.421Z,4.50
2022-11-26T02:40:17.502Z,4.60
2022-11-26T02:42:45.640Z,4.60
2022-11-26T02:45:18.921Z,4.60
2022-11-26T02:47:50.264Z,4.60
2022-11-26T02:50:21.400Z,4.50
2022-11-26T02:52:51.045Z,4.50
2022-11-26T02:55:23.063Z,4.60
2022-11-26T02:57:52.539Z,4.60
2022-11-26T03:00:22.409Z,4.50
2022-11-26T03:02:55.345Z,4.50
2022-11-26T03:05:23.734Z,4.60
2022-11-26T03:07:54.144Z,4.60
2022-11-26T03:10:26.840Z,4.60
2022-11-26T03:12:55.101Z,4.60
2022-11-26T03:15:25.141Z,4.60
2022-11-26T03:17:53.214Z,4.60
2022-11-26T03:20:21.230Z,4.70
2022-11-26T03:22:49.155Z,4.60
2022-11-26T03:25:17.451Z,4.70
2022-11-26T03:27:45.371Z,4.60
2022-11-26T03:30:14.059Z,4.60
2022-11-26T03:32:43.690Z,4.60
2022-11-26T03:35:11.947Z,4.60
2022-11-26T03:37:40.118Z,4.60
2022-11-26T03:40:09.276Z,4.60
2022-11-26T03:42:37.776Z,4.70
2022-11-26T03:45:06.990Z,4.70
2022-11-26T03:47:35.018Z,4.60
2022-11-26T03:50:04.972Z,4.60
2022-11-26T03:52:33.083Z,4.60
2022-11-26T03:55:01.174Z,4.60
2022-11-26T03:57:29.139Z,4.70
2022-11-26T03:59:57.171Z,4.60
2022-11-26T04:02:25.139Z,4.70
2022-11-26T04:04:53.110Z,4.70
2022-11-26T04:07:22.691Z,4.80
2022-11-26T04:09:50.852Z,4.80
2022-11-26T04:12:19.028Z,4.80
2022-11-26T04:14:46.974Z,4.90
2022-11-26T04:17:14.948Z,4.90
2022-11-26T04:19:42.915Z,4.90
2022-11-26T04:22:10.927Z,5.00
2022-11-26T04:24:40.650Z,5.00
2022-11-26T04:27:09.326Z,5.00
2022-11-26T04:29:37.436Z,5.00
2022-11-26T04:32:06.492Z,5.00
2022-11-26T04:34:34.783Z,5.10
2022-11-26T04:37:02.817Z,5.10
2022-11-26T04:39:30.812Z,5.10
2022-11-26T04:42:00.121Z,5.20
2022-11-26T04:44:28.249Z,5.20
2022-11-26T04:46:56.208Z,5.20
2022-11-26T04:49:24.367Z,5.20
2022-11-26T04:51:52.356Z,5.20
2022-11-26T04:54:20.294Z,5.20
2022-11-26T04:56:48.217Z,5.30
2022-11-26T04:59:17.589Z,5.50
2022-11-26T05:01:45.604Z,5.30
2022-11-26T05:04:13.606Z,5.30
2022-11-26T05:06:41.533Z,5.40
2022-11-26T05:09:10.007Z,5.40
2022-11-26T05:11:38.054Z,5.40
2022-11-26T05:14:06.055Z,5.50
2022-11-26T05:16:35.423Z,5.50
2022-11-26T05:19:03.483Z,5.50
2022-11-26T05:21:31.372Z,5.50
2022-11-26T05:23:59.279Z,5.50
2022-11-26T05:26:27.438Z,5.50
2022-11-26T05:28:55.411Z,5.50
2022-11-26T05:31:23.604Z,5.50
2022-11-26T05:33:53.000Z,5.60
2022-11-26T05:36:21.093Z,5.60
2022-11-26T05:38:49.176Z,5.50
2022-11-26T05:41:17.228Z,5.60
2022-11-26T05:43:45.184Z,5.60
2022-11-26T05:46:16.353Z,5.70
2022-11-26T05:48:44.566Z,5.70
2022-11-26T05:51:14.001Z,5.60
2022-11-26T05:53:41.931Z,5.70
2022-11-26T05:56:10.031Z,5.70
2022-11-26T05:58:38.033Z,5.70
2022-11-26T06:01:08.496Z,5.70
2022-11-26T06:03:36.611Z,5.70
2022-11-26T06:06:05.132Z,5.70
2022-11-26T06:08:35.152Z,5.70
2022-11-26T06:11:03.182Z,5.70
2022-11-26T06:13:31.135Z,5.80
2022-11-26T06:15:59.692Z,5.80
2022-11-26T06:18:27.652Z,5.80
2022-11-26T06:20:55.625Z,5.80
2022-11-26T06:23:23.601Z,5.80
2022-11-26T06:25:52.953Z,5.80
2022-11-26T06:28:20.927Z,5.80
2022-11-26T06:30:48.892Z,5.80
2022-11-26T06:33:17.002Z,5.80
2022-11-26T06:35:44.935Z,5.80
2022-11-26T06:38:12.942Z,6.00
2022-11-26T06:40:41.029Z,5.90
2022-11-26T06:43:10.468Z,5.90
2022-11-26T06:45:38.494Z,5.90
2022-11-26T06:48:06.955Z,5.90
2022-11-26T06:50:34.928Z,6.00
2022-11-26T06:53:02.877Z,6.00
2022-11-26T06:55:30.952Z,6.00
2022-11-26T06:57:58.929Z,6.00
2022-11-26T07:00:30.819Z,6.20
2022-11-26T07:02:58.797Z,6.00
2022-11-26T07:05:27.120Z,6.10
2022-11-26T07:07:55.090Z,6.00
2022-11-26T07:10:23.041Z,6.10
2022-11-26T07:12:50.981Z,6.00
2022-11-26T07:15:19.426Z,6.10
2022-11-26T07:17:48.783Z,6.10
2022-11-26T07:20:16.961Z,6.20
2022-11-26T07:22:44.993Z,6.10
2022-11-26T07:25:13.218Z,6.20
2022-11-26T07:27:41.981Z,6.20
2022-11-26T07:30:11.081Z,6.20
2022-11-26T07:32:39.357Z,6.20
2022-11-26T07:35:09.137Z,6.30
2022-11-26T07:37:37.341Z,6.30
2022-11-26T07:40:07.097Z,6.30
2022-11-26T07:42:35.167Z,6.40
2022-11-26T07:45:03.830Z,6.40
2022-11-26T07:47:31.800Z,6.40
2022-11-26T07:49:59.849Z,6.50
2022-11-26T07:52:29.400Z,6.50
2022-11-26T07:54:57.329Z,6.50
2022-11-26T07:57:25.454Z,6.60
2022-11-26T07:59:53.444Z,6.70
2022-11-26T08:02:21.405Z,6.70
2022-11-26T08:04:49.592Z,6.80
2022-11-26T08:07:24.354Z,6.90
2022-11-26T08:09:55.397Z,7.00
2022-11-26T08:12:23.393Z,7.00
2022-11-26T08:14:51.500Z,7.10
2022-11-26T08:17:19.480Z,7.40
2022-11-26T08:19:47.401Z,7.40
2022-11-26T08:22:15.335Z,7.60
2022-11-26T08:24:43.299Z,7.60
2022-11-26T08:27:12.875Z,7.70
2022-11-26T08:29:40.916Z,7.70
2022-11-26T08:32:08.991Z,7.70
2022-11-26T08:34:37.060Z,7.70
2022-11-26T08:37:05.320Z,7.60
2022-11-26T08:39:33.384Z,7.70
2022-11-26T08:42:02.281Z,7.70
2022-11-26T08:44:31.607Z,7.80
2022-11-26T08:46:59.531Z,7.80
2022-11-26T08:49:27.586Z,7.80
2022-11-26T08:51:56.603Z,7.90
2022-11-26T08:54:25.309Z,7.80
2022-11-26T08:56:53.847Z,7.80
2022-11-26T08:59:24.216Z,7.90
2022-11-26T09:01:54.013Z,8.00
2022-11-26T09:04:22.084Z,7.90
2022-11-26T09:06:50.501Z,8.00
2022-11-26T09:09:18.520Z,8.10
2022-11-26T09:11:49.529Z,8.20
2022-11-26T09:14:19.785Z,8.20
2022-11-26T09:16:47.959Z,8.40
2022-11-26T09:19:18.587Z,8.40
2022-11-26T09:21:47.530Z,8.50
2022-11-26T09:24:16.497Z,8.60
2022-11-26T09:26:44.836Z,8.70
2022-11-26T09:29:14.694Z,8.60
2022-11-26T09:32:07.339Z,8.60
2022-11-26T09:34:32.677Z,8.60
2022-11-26T09:37:00.650Z,8.50
2022-11-26T09:39:28.871Z,8.50
2022-11-26T09:42:05.343Z,8.40
2022-11-26T09:44:53.372Z,8.40
2022-11-26T09:47:23.827Z,8.50
2022-11-26T09:50:04.426Z,8.60
2022-11-26T09:52:38.580Z,8.60
2022-11-26T09:55:15.869Z,8.60
2022-11-26T09:57:51.159Z,8.60
2022-11-26T10:00:26.201Z,8.60
2022-11-26T10:02:55.776Z,8.60
2022-11-26T10:05:43.219Z,8.60
2022-11-26T10:08:42.390Z,8.70
2022-11-26T10:11:19.720Z,8.70
2022-11-26T10:14:05.102Z,8.80
2022-11-26T10:16:43.587Z,8.80
2022-11-26T10:19:19.538Z,8.80
2022-11-26T10:21:59.005Z,8.90
2022-11-26T10:24:31.377Z,8.90
2022-11-26T10:27:02.513Z,8.90
2022-11-26T10:29:38.240Z,8.90
2022-11-26T10:32:16.279Z,8.90
2022-11-26T10:34:51.370Z,8.90
2022-11-26T10:37:23.155Z,9.00
2022-11-26T10:40:00.911Z,9.00
2022-11-26T10:42:41.644Z,9.00
2022-11-26T10:45:20.926Z,9.00
2022-11-26T10:47:48.952Z,9.00
2022-11-26T10:50:46.500Z,8.90
2022-11-26T10:53:21.580Z,9.00
2022-11-26T10:55:50.144Z,9.00
2022-11-26T10:58:21.606Z,9.10
2022-11-26T11:00:58.036Z,9.10
2022-11-26T11:04:05.624Z,9.20
2022-11-26T11:06:36.180Z,9.30
2022-11-26T11:09:24.683Z,9.50
2022-11-26T11:12:17.687Z,9.60
2022-11-26T11:14:47.587Z,9.70
2022-11-26T11:17:30.421Z,9.50
2022-11-26T11:19:59.507Z,9.50
2022-11-26T11:22:29.027Z,9.60
2022-11-26T11:25:00.783Z,9.60
2022-11-26T11:27:39.120Z,9.60
2022-11-26T11:30:08.800Z,9.60
2022-11-26T11:32:39.141Z,9.60
2022-11-26T11:35:22.188Z,9.70
2022-11-26T11:37:51.423Z,9.70
2022-11-26T11:40:25.517Z,9.70
2022-11-26T11:42:57.118Z,9.90
2022-11-26T11:45:30.471Z,10.00
2022-11-26T11:48:01.426Z,10.10
2022-11-26T11:50:37.235Z,10.10
2022-11-26T11:53:20.257Z,10.10
2022-11-26T11:56:02.488Z,10.10
2022-11-26T11:58:54.764Z,10.30
2022-11-26T12:01:38.148Z,10.40
2022-11-26T12:04:24.948Z,10.30
2022-11-26T12:07:19.782Z,10.10
2022-11-26T12:09:56.831Z,9.80
2022-11-26T12:12:29.960Z,9.50
2022-11-26T12:15:09.192Z,9.30
2022-11-26T12:17:42.430Z,9.20
2022-11-26T12:20:19.943Z,9.10
2022-11-26T12:22:58.012Z,9.00
2022-11-26T12:25:35.323Z,8.90
2022-11-26T12:28:15.126Z,9.10
2022-11-26T12:30:49.746Z,9.20
2022-11-26T12:33:24.821Z,9.20
2022-11-26T12:35:56.015Z,9.20
2022-11-26T12:38:28.439Z,9.40
2022-11-26T12:41:02.276Z,9.60
2022-11-26T12:43:44.458Z,9.90
2022-11-26T12:46:19.406Z,10.00
2022-11-26T12:48:55.344Z,10.10
2022-11-26T12:51:30.419Z,10.00
2022-11-26T12:54:05.368Z,10.20
2022-11-26T12:56:41.604Z,10.00
2022-11-26T12:59:20.902Z,9.90
2022-11-26T13:01:49.354Z,10.00
2022-11-26T13:04:37.922Z,10.00
2022-11-26T13:07:20.154Z,10.00
2022-11-26T13:10:04.580Z,10.00
2022-11-26T13:12:45.435Z,10.10
2022-11-26T13:15:23.421Z,10.20
2022-11-26T13:17:52.140Z,10.30
2022-11-26T13:20:56.275Z,10.50
2022-11-26T13:23:36.407Z,10.60
2022-11-26T13:26:18.712Z,10.50
2022-11-26T13:29:05.425Z,10.20
2022-11-26T13:31:50.247Z,9.90
2022-11-26T13:34:40.041Z,9.80
2022-11-26T13:37:25.203Z,9.70
2022-11-26T13:40:09.845Z,9.60
2022-11-26T13:42:56.179Z,9.40
2022-11-26T13:45:43.513Z,9.40
2022-11-26T13:48:17.293Z,9.40
2022-11-26T13:50:50.707Z,9.30
2022-11-26T13:53:26.739Z,9.10
2022-11-26T13:55:58.503Z,9.00
2022-11-26T13:58:31.152Z,8.90
2022-11-26T14:01:30.567Z,8.80
2022-11-26T14:04:01.223Z,8.80
2022-11-26T14:06:29.197Z,8.90
2022-11-26T14:08:57.900Z,8.90
2022-11-26T14:11:57.198Z,8.90
2022-11-26T14:14:36.212Z,9.00
2022-11-26T14:17:21.623Z,9.10
2022-11-26T14:20:11.617Z,9.10
2022-11-26T14:22:40.395Z,9.10
2022-11-26T14:25:11.622Z,9.00
2022-11-26T14:27:43.082Z,8.90
2022-11-26T14:30:26.024Z,8.90
2022-11-26T14:33:04.665Z,8.90
2022-11-26T14:35:35.992Z,8.80
2022-11-26T14:38:06.817Z,8.90
2022-11-26T14:40:39.888Z,8.80
2022-11-26T14:43:19.631Z,8.70
2022-11-26T14:45:49.758Z,8.60
2022-11-26T14:48:26.086Z,8.50
2022-11-26T14:50:58.138Z,8.50
2022-11-26T14:53:29.348Z,8.40
2022-11-26T14:55:58.275Z,8.40
2022-11-26T14:58:33.891Z,8.40
2022-11-26T15:01:04.440Z,8.30
2022-11-26T15:03:32.687Z,8.30
2022-11-26T15:06:04.390Z,8.30
2022-11-26T15:08:32.433Z,8.30
2022-11-26T15:11:02.859Z,8.30
2022-11-26T15:13:37.450Z,8.30
2022-11-26T15:16:27.846Z,8.30
2022-11-26T15:18:56.853Z,8.20
2022-11-26T15:21:28.710Z,8.20
2022-11-26T15:24:00.485Z,8.20
2022-11-26T15:26:34.624Z,8.10
2022-11-26T15:29:03.624Z,8.10
2022-11-26T15:31:41.167Z,8.00
2022-11-26T15:34:12.771Z,8.00
2022-11-26T15:36:42.491Z,8.00
2022-11-26T15:39:26.026Z,8.00
2022-11-26T15:41:56.673Z,7.90
2022-11-26T15:44:27.636Z,7.90
2022-11-26T15:47:00.002Z,7.90
2022-11-26T15:49:33.520Z,7.80
2022-11-26T15:52:06.989Z,7.80
2022-11-26T15:55:04.587Z,7.80
2022-11-26T15:57:29.472Z,7.80
2022-11-26T16:00:01.511Z,7.80
2022-11-26T16:02:31.334Z,7.80
2022-11-26T16:05:00.740Z,7.80
2022-11-26T16:07:31.949Z,7.70
2022-11-26T16:10:22.734Z,7.70
2022-11-26T16:13:19.886Z,7.70
2022-11-26T16:15:55.891Z,7.70
2022-11-26T16:18:29.487Z,7.70
2022-11-26T16:21:06.650Z,7.60
2022-11-26T16:23:36.620Z,7.60
2022-11-26T16:26:10.559Z,7.60
2022-11-26T16:28:39.008Z,7.60
2022-11-26T16:31:07.999Z,7.60
2022-11-26T16:33:36.216Z,7.60
2022-11-26T16:36:21.659Z,7.60
2022-11-26T16:38:51.705Z,7.60
2022-11-26T16:41:22.195Z,7.60
2022-11-26T16:43:50.787Z,7.60
2022-11-26T16:46:23.511Z,7.50
2022-11-26T16:48:52.122Z,7.50
2022-11-26T16:51:20.911Z,7.50
2022-11-26T16:53:49.195Z,7.50
2022-11-26T16:56:24.072Z,7.50
2022-11-26T16:58:53.322Z,7.50
2022-11-26T17:01:21.771Z,7.50
2022-11-26T17:03:50.557Z,7.50
2022-11-26T17:06:25.572Z,7.40
2022-11-26T17:08:56.706Z,7.40
2022-11-26T17:11:26.605Z,7.40
2022-11-26T17:13:55.087Z,7.40
2022-11-26T17:16:26.505Z,7.40
2022-11-26T17:18:54.686Z,7.40
2022-11-26T17:21:23.876Z,7.30
2022-11-26T17:23:52.145Z,7.30
2022-11-26T17:26:22.515Z,7.30
2022-11-26T17:28:52.200Z,7.30
2022-11-26T17:31:20.517Z,7.30
2022-11-26T17:33:48.994Z,7.30
2022-11-26T17:36:19.040Z,7.40
2022-11-26T17:38:49.238Z,7.30
2022-11-26T17:41:18.373Z,7.20
2022-11-26T17:43:46.769Z,7.20
2022-11-26T17:46:22.954Z,7.20
2022-11-26T17:48:55.648Z,7.20
2022-11-26T17:51:27.672Z,7.20
2022-11-26T17:53:55.801Z,7.20
2022-11-26T17:56:27.005Z,7.20
2022-11-26T17:58:55.311Z,7.20
2022-11-26T18:01:24.824Z,7.20
2022-11-26T18:03:53.090Z,7.20
2022-11-26T18:06:30.181Z,7.20
2022-11-26T18:08:58.347Z,7.10
2022-11-26T18:11:44.142Z,7.00
2022-11-26T18:14:12.629Z,7.00
2022-11-26T18:16:42.305Z,7.00
2022-11-26T18:19:12.094Z,7.00
2022-11-26T18:21:41.090Z,6.90
2022-11-26T18:24:10.391Z,6.90
2022-11-26T18:26:41.475Z,6.90
2022-11-26T18:29:11.440Z,6.90
2022-11-26T18:31:40.330Z,6.90
2022-11-26T18:34:10.041Z,6.90
2022-11-26T18:36:38.393Z,6.90
2022-11-26T18:39:06.822Z,6.90
2022-11-26T18:41:35.681Z,6.90
2022-11-26T18:44:04.260Z,6.90
2022-11-26T18:46:32.745Z,6.90
2022-11-26T18:49:01.118Z,6.90
2022-11-26T18:51:30.678Z,6.90
2022-11-26T18:53:59.041Z,6.90
2022-11-26T18:56:27.162Z,6.80
2022-11-26T18:58:55.422Z,6.80
2022-11-26T19:01:27.722Z,6.80
2022-11-26T19:03:57.362Z,6.90
2022-11-26T19:06:27.225Z,6.80
2022-11-26T19:09:00.859Z,6.80
2022-11-26T19:11:29.384Z,6.80
2022-11-26T19:13:59.189Z,6.80
2022-11-26T19:16:28.631Z,6.80
2022-11-26T19:18:57.096Z,6.80
2022-11-26T19:21:28.070Z,6.90
2022-11-26T19:24:00.357Z,6.80
2022-11-26T19:26:29.064Z,6.80
2022-11-26T19:28:57.403Z,6.80
2022-11-26T19:31:26.791Z,6.90
2022-11-26T19:33:58.033Z,6.90
2022-11-26T19:36:27.729Z,6.90
2022-11-26T19:38:56.896Z,6.90
2022-11-26T19:41:27.197Z,6.90
2022-11-26T19:43:55.289Z,6.90
2022-11-26T19:46:25.831Z,6.90
2022-11-26T19:48:54.548Z,6.90
2022-11-26T19:51:24.645Z,6.90
2022-11-26T19:53:55.962Z,7.00
2022-11-26T19:56:27.733Z,6.90
2022-11-26T19:58:57.824Z,7.00
2022-11-26T20:01:30.473Z,7.00
2022-11-26T20:04:00.030Z,7.00
2022-11-26T20:06:29.467Z,7.10
2022-11-26T20:08:59.228Z,7.10
2022-11-26T20:11:29.748Z,7.00
2022-11-26T20:13:59.782Z,7.00
2022-11-26T20:16:30.202Z,7.00
2022-11-26T20:18:59.144Z,7.00
2022-11-26T20:21:31.794Z,7.00
2022-11-26T20:24:01.296Z,6.90
2022-11-26T20:26:32.778Z,7.10
2022-11-26T20:29:02.453Z,6.90
2022-11-26T20:31:30.815Z,6.90
2022-11-26T20:33:59.141Z,6.90
2022-11-26T20:36:27.204Z,6.90
2022-11-26T20:38:57.368Z,6.90
2022-11-26T20:41:27.389Z,7.00
2022-11-26T20:43:59.305Z,7.00
2022-11-26T20:46:29.724Z,6.90
2022-11-26T20:48:58.635Z,7.00
2022-11-26T20:51:26.777Z,7.00
2022-11-26T20:53:54.916Z,6.90
2022-11-26T20:56:23.515Z,6.90
2022-11-26T20:58:56.122Z,6.90
2022-11-26T21:01:26.100Z,7.00
2022-11-26T21:03:54.345Z,7.00
2022-11-26T21:06:29.542Z,6.90
2022-11-26T21:08:59.963Z,6.90
2022-11-26T21:11:28.093Z,6.90
2022-11-26T21:13:58.808Z,7.00
2022-11-26T21:16:26.973Z,7.00
2022-11-26T21:18:56.087Z,6.90
2022-11-26T21:21:26.668Z,7.00
2022-11-26T21:23:55.734Z,6.90
2022-11-26T21:26:26.165Z,6.90
2022-11-26T21:28:56.124Z,6.90
2022-11-26T21:31:27.199Z,6.90
2022-11-26T21:33:56.719Z,6.90
2022-11-26T21:36:26.336Z,7.00
2022-11-26T21:38:54.787Z,7.00
2022-11-26T21:41:25.005Z,7.00
2022-11-26T21:43:53.545Z,7.00
2022-11-26T21:46:23.481Z,6.90
2022-11-26T21:48:55.196Z,6.90
2022-11-26T21:51:24.804Z,6.90
2022-11-26T21:53:54.837Z,6.90
2022-11-26T21:56:24.990Z,6.80
2022-11-26T21:58:53.300Z,6.80
2022-11-26T22:01:24.693Z,6.80
2022-11-26T22:03:59.095Z,6.80
2022-11-26T22:06:28.248Z,6.80
2022-11-26T22:08:56.865Z,6.80
2022-11-26T22:11:26.856Z,6.70
2022-11-26T22:13:55.746Z,6.70
2022-11-26T22:16:26.360Z,6.70
2022-11-26T22:18:57.203Z,6.70
2022-11-26T22:21:29.243Z,6.70
2022-11-26T22:23:57.921Z,6.70
2022-11-26T22:26:26.677Z,6.60
2022-11-26T22:28:55.602Z,6.60
2022-11-26T22:31:25.409Z,6.60
2022-11-26T22:33:57.153Z,6.70
2022-11-26T22:36:25.897Z,6.70
2022-11-26T22:38:54.231Z,6.70
2022-11-26T22:41:24.282Z,6.60
2022-11-26T22:43:52.533Z,6.60
2022-11-26T22:46:22.644Z,6.60
2022-11-26T22:48:52.798Z,6.60
2022-11-26T22:51:23.210Z,6.70
2022-11-26T22:53:52.208Z,6.60
2022-11-26T22:56:21.238Z,6.60
2022-11-26T22:58:50.006Z,6.60
2022-11-26T23:01:21.026Z,6.60
2022-11-26T23:03:50.138Z,6.60
2022-11-26T23:06:19.720Z,6.60
2022-11-26T23:08:50.039Z,6.60
2022-11-26T23:11:21.075Z,6.60
2022-11-26T23:13:50.978Z,6.60
2022-11-26T23:16:21.292Z,6.60
2022-11-26T23:18:49.710Z,6.60
2022-11-26T23:21:19.915Z,6.60
2022-11-26T23:23:50.469Z,6.50
2022-11-26T23:26:26.525Z,6.50
2022-11-26T23:28:56.011Z,6.50
2022-11-26T23:31:26.623Z,6.50
2022-11-26T23:33:55.439Z,6.60
2022-11-26T23:36:24.425Z,6.60
2022-11-26T23:38:53.991Z,6.60
2022-11-26T23:41:22.432Z,6.60
2022-11-26T23:43:50.609Z,6.70
2022-11-26T23:46:20.510Z,6.70
2022-11-26T23:48:49.533Z,6.70
2022-11-26T23:51:19.602Z,6.70
2022-11-26T23:53:48.813Z,6.70
2022-11-26T23:56:20.620Z,6.70
2022-11-26T23:58:50.340Z,6.70
